createdAt,value
2023-05-12T00:01:31.629Z,2.47
2023-05-12T00:04:21.116Z,2.47
2023-05-12T00:07:10.392Z,3.28
2023-05-12T00:09:59.646Z,2.55
2023-05-12T00:12:49.441Z,2.58
2023-05-12T00:15:39.098Z,2.33
2023-05-12T00:18:29.671Z,2.22
2023-05-12T00:21:18.951Z,2.50
2023-05-12T00:24:08.485Z,2.30
2023-05-12T00:26:57.857Z,2.20
2023-05-12T00:29:47.130Z,2.20
2023-05-12T00:32:36.505Z,2.20
2023-05-12T00:35:25.970Z,2.28
2023-05-12T00:38:15.522Z,2.40
2023-05-12T00:41:05.715Z,2.05
2023-05-12T00:43:55.211Z,2.20
2023-05-12T00:46:44.665Z,2.03
2023-05-12T00:49:34.401Z,2.17
2023-05-12T00:52:23.933Z,1.90
2023-05-12T00:55:13.224Z,2.10
2023-05-12T00:58:02.491Z,2.30
2023-05-12T01:00:52.397Z,2.08
2023-05-12T01:03:42.114Z,2.00
2023-05-12T01:06:39.801Z,2.00
2023-05-12T01:09:29.930Z,2.00
2023-05-12T01:12:22.541Z,1.77
2023-05-12T01:15:12.414Z,1.80
2023-05-12T01:18:04.619Z,2.13
2023-05-12T01:20:56.576Z,1.85
2023-05-12T01:23:53.163Z,1.80
2023-05-12T01:26:42.711Z,2.05
2023-05-12T01:29:33.507Z,2.08
2023-05-12T01:32:23.559Z,1.92
2023-05-12T01:35:13.875Z,1.88
2023-05-12T01:38:09.121Z,1.77
2023-05-12T01:41:01.608Z,2.00
2023-05-12T01:43:50.931Z,1.85
2023-05-12T01:46:40.266Z,1.80
2023-05-12T01:49:30.660Z,2.10
2023-05-12T01:52:21.534Z,2.15
2023-05-12T01:55:10.918Z,1.80
2023-05-12T01:58:12.010Z,2.00
2023-05-12T02:01:01.287Z,1.70
2023-05-12T02:03:50.735Z,1.80
2023-05-12T02:06:40.317Z,1.90
2023-05-12T02:09:29.810Z,1.80
2023-05-12T02:12:22.871Z,1.88
2023-05-12T02:15:12.806Z,1.75
2023-05-12T02:18:06.631Z,1.83
2023-05-12T02:20:56.172Z,1.80
2023-05-12T02:23:45.649Z,1.88
2023-05-12T02:26:34.964Z,1.90
2023-05-12T02:29:24.250Z,1.88
2023-05-12T02:32:13.816Z,1.95
2023-05-12T02:35:06.509Z,1.90
2023-05-12T02:37:55.809Z,1.90
2023-05-12T02:40:45.181Z,1.80
2023-05-12T02:43:35.414Z,1.70
2023-05-12T02:46:24.767Z,2.10
2023-05-12T02:49:14.157Z,1.90
2023-05-12T02:52:03.982Z,1.80
2023-05-12T02:54:53.353Z,1.70
2023-05-12T02:57:42.777Z,1.70
2023-05-12T03:00:32.328Z,1.80
2023-05-12T03:03:21.880Z,1.80
2023-05-12T03:06:11.429Z,1.80
2023-05-12T03:09:00.939Z,2.15
2023-05-12T03:11:50.225Z,1.90
2023-05-12T03:14:39.454Z,1.70
2023-05-12T03:17:28.855Z,1.70
2023-05-12T03:20:18.498Z,1.70
2023-05-12T03:23:07.980Z,1.90
2023-05-12T03:25:57.531Z,1.90
2023-05-12T03:28:47.669Z,1.88
2023-05-12T03:31:37.486Z,2.00
2023-05-12T03:34:27.058Z,1.88
2023-05-12T03:37:19.177Z,1.70
2023-05-12T03:40:09.044Z,2.00
2023-05-12T03:42:58.534Z,2.00
2023-05-12T03:45:47.803Z,1.88
2023-05-12T03:48:37.663Z,1.90
2023-05-12T03:51:27.411Z,1.80
2023-05-12T03:54:16.716Z,1.80
2023-05-12T03:57:06.451Z,1.70
2023-05-12T03:59:56.233Z,2.10
2023-05-12T04:02:45.753Z,1.80
2023-05-12T04:05:37.487Z,2.20
2023-05-12T04:08:26.838Z,2.00
2023-05-12T04:11:16.211Z,2.17
2023-05-12T04:14:05.968Z,1.70
2023-05-12T04:16:55.316Z,1.90
2023-05-12T04:19:47.847Z,2.05
2023-05-12T04:22:37.101Z,2.00
2023-05-12T04:25:27.588Z,2.20
2023-05-12T04:28:17.176Z,2.10
2023-05-12T04:31:07.062Z,2.10
2023-05-12T04:33:58.210Z,2.00
2023-05-12T04:36:47.819Z,2.00
2023-05-12T04:39:37.201Z,2.00
2023-05-12T04:42:26.985Z,1.92
2023-05-12T04:45:16.706Z,1.98
2023-05-12T04:48:06.889Z,1.90
2023-05-12T04:50:56.546Z,1.98
2023-05-12T04:53:45.954Z,1.90
2023-05-12T04:56:36.610Z,1.85
2023-05-12T04:59:26.402Z,2.28
2023-05-12T05:02:17.099Z,2.20
2023-05-12T05:05:07.587Z,2.10
2023-05-12T05:07:57.676Z,1.90
2023-05-12T05:10:47.189Z,1.90
2023-05-12T05:13:36.611Z,2.15
2023-05-12T05:16:26.473Z,2.20
2023-05-12T05:19:22.574Z,2.20
2023-05-12T05:22:25.044Z,2.10
2023-05-12T05:25:15.225Z,2.00
2023-05-12T05:28:04.731Z,2.20
2023-05-12T05:30:54.718Z,2.00
2023-05-12T05:33:45.469Z,2.10
2023-05-12T05:36:35.281Z,2.10
2023-05-12T05:39:24.581Z,1.95
2023-05-12T05:42:13.851Z,2.25
2023-05-12T05:45:03.277Z,2.20
2023-05-12T05:47:54.257Z,2.22
2023-05-12T05:50:44.178Z,2.10
2023-05-12T05:53:34.394Z,2.05
2023-05-12T05:56:24.166Z,2.28
2023-05-12T05:59:15.332Z,2.25
2023-05-12T06:02:05.052Z,2.20
2023-05-12T06:04:54.981Z,2.20
2023-05-12T06:07:44.431Z,2.30
2023-05-12T06:10:33.825Z,2.00
2023-05-12T06:13:23.217Z,2.20
2023-05-12T06:16:12.587Z,2.30
2023-05-12T06:19:04.915Z,2.35
2023-05-12T06:21:54.410Z,2.30
2023-05-12T06:24:43.685Z,2.30
2023-05-12T06:27:33.095Z,2.08
2023-05-12T06:30:22.579Z,2.10
2023-05-12T06:33:11.939Z,2.20
2023-05-12T06:36:01.261Z,2.22
2023-05-12T06:38:52.028Z,2.20
2023-05-12T06:41:41.530Z,1.90
2023-05-12T06:44:42.347Z,2.13
2023-05-12T06:47:31.963Z,2.35
2023-05-12T06:50:21.327Z,2.20
2023-05-12T06:53:15.115Z,2.22
2023-05-12T06:56:05.273Z,2.50
2023-05-12T06:58:55.441Z,2.28
2023-05-12T07:01:44.871Z,2.33
2023-05-12T07:04:34.362Z,2.45
2023-05-12T07:07:23.574Z,2.22
2023-05-12T07:10:13.183Z,2.50
2023-05-12T07:13:02.471Z,2.10
2023-05-12T07:15:52.120Z,2.47
2023-05-12T07:18:41.402Z,2.30
2023-05-12T07:21:31.829Z,2.70
2023-05-12T07:24:21.124Z,2.70
2023-05-12T07:27:10.496Z,2.40
2023-05-12T07:29:59.748Z,2.47
2023-05-12T07:32:49.351Z,2.40
2023-05-12T07:35:38.641Z,2.20
2023-05-12T07:38:28.177Z,2.45
2023-05-12T07:41:18.614Z,2.50
2023-05-12T07:44:08.544Z,2.20
2023-05-12T07:46:57.770Z,2.15
2023-05-12T07:49:47.302Z,2.33
2023-05-12T07:52:36.784Z,2.30
2023-05-12T07:55:27.296Z,2.20
2023-05-12T07:58:16.608Z,2.30
2023-05-12T08:01:07.811Z,2.58
2023-05-12T08:03:57.378Z,2.47
2023-05-12T08:06:46.779Z,2.50
2023-05-12T08:09:36.100Z,2.30
2023-05-12T08:12:25.433Z,2.40
2023-05-12T08:15:14.919Z,2.70
2023-05-12T08:18:04.707Z,2.38
2023-05-12T08:20:54.081Z,2.47
2023-05-12T08:23:43.396Z,2.13
2023-05-12T08:26:33.261Z,1.92
2023-05-12T08:29:22.529Z,2.67
2023-05-12T08:32:12.279Z,2.50
2023-05-12T08:35:02.619Z,2.45
2023-05-12T08:37:54.910Z,2.60
2023-05-12T08:41:04.568Z,2.55
2023-05-12T08:43:54.587Z,2.55
2023-05-12T08:46:44.629Z,2.50
2023-05-12T08:49:36.997Z,2.30
2023-05-12T08:52:27.106Z,2.30
2023-05-12T08:55:16.808Z,2.50
2023-05-12T08:58:07.167Z,2.50
2023-05-12T09:00:58.887Z,2.40
2023-05-12T09:03:48.339Z,2.40
2023-05-12T09:06:37.734Z,2.42
2023-05-12T09:09:30.539Z,2.60
2023-05-12T09:15:13.116Z,2.40
2023-05-12T09:18:02.452Z,2.38
2023-05-12T09:20:51.746Z,2.70
2023-05-12T09:23:40.994Z,2.30
2023-05-12T09:26:30.587Z,2.25
2023-05-12T09:29:31.392Z,2.40
2023-05-12T09:32:45.009Z,2.70
2023-05-12T09:35:48.084Z,2.47
2023-05-12T09:38:37.316Z,2.70
2023-05-12T09:41:26.962Z,2.33
2023-05-12T09:44:18.020Z,2.55
2023-05-12T09:47:11.353Z,2.70
2023-05-12T09:50:00.766Z,2.38
2023-05-12T09:52:54.986Z,2.55
2023-05-12T09:55:48.906Z,2.40
2023-05-12T09:58:41.294Z,2.72
2023-05-12T10:01:30.966Z,2.38
2023-05-12T10:04:21.277Z,2.50
2023-05-12T10:07:14.196Z,2.55
2023-05-12T10:10:06.555Z,2.35
2023-05-12T10:12:57.199Z,2.50
2023-05-12T10:15:48.410Z,2.70
2023-05-12T10:18:38.520Z,2.47
2023-05-12T10:21:28.048Z,2.85
2023-05-12T10:24:21.799Z,2.60
2023-05-12T10:27:13.039Z,2.30
2023-05-12T10:30:05.498Z,2.63
2023-05-12T10:32:55.391Z,2.65
2023-05-12T10:35:48.549Z,2.40
2023-05-12T10:38:38.934Z,2.60
2023-05-12T10:41:35.729Z,3.13
2023-05-12T10:44:29.407Z,2.53
2023-05-12T10:47:18.938Z,2.40
2023-05-12T10:50:08.931Z,2.90
2023-05-12T10:52:59.123Z,2.50
2023-05-12T10:55:53.438Z,2.80
2023-05-12T10:59:10.228Z,2.47
2023-05-12T11:02:00.195Z,2.67
2023-05-12T11:04:58.020Z,2.90
2023-05-12T11:07:52.575Z,2.88
2023-05-12T11:10:46.692Z,2.65
2023-05-12T11:13:37.183Z,2.67
2023-05-12T11:16:26.626Z,2.70
2023-05-12T11:19:15.888Z,2.60
2023-05-12T11:22:12.822Z,2.70
2023-05-12T11:25:11.781Z,2.80
2023-05-12T11:28:01.146Z,2.45
2023-05-12T11:30:55.384Z,2.30
2023-05-12T11:33:45.078Z,2.80
2023-05-12T11:36:46.384Z,2.95
2023-05-12T11:39:35.660Z,2.20
2023-05-12T11:42:25.932Z,2.58
2023-05-12T11:45:30.312Z,2.50
2023-05-12T11:48:19.854Z,2.72
2023-05-12T11:51:09.608Z,2.40
2023-05-12T11:53:59.164Z,2.47
2023-05-12T11:56:53.405Z,2.80
2023-05-12T11:59:43.041Z,3.13
2023-05-12T12:02:32.777Z,2.63
2023-05-12T12:05:23.105Z,3.00
2023-05-12T12:08:15.157Z,2.72
2023-05-12T12:11:05.241Z,2.53
2023-05-12T12:13:58.639Z,2.50
2023-05-12T12:16:47.903Z,2.53
2023-05-12T12:19:37.180Z,2.50
2023-05-12T12:22:26.464Z,2.83
2023-05-12T12:25:15.743Z,2.50
2023-05-12T12:28:05.559Z,2.90
2023-05-12T12:30:54.769Z,2.33
2023-05-12T12:33:44.403Z,2.85
2023-05-12T12:36:36.851Z,2.50
2023-05-12T12:39:26.080Z,3.22
2023-05-12T12:42:15.325Z,2.67
2023-05-12T12:45:09.514Z,2.50
2023-05-12T12:47:58.865Z,2.85
2023-05-12T12:50:48.145Z,2.97
2023-05-12T12:53:38.668Z,2.55
2023-05-12T12:56:27.978Z,2.63
2023-05-12T12:59:17.342Z,2.38
2023-05-12T13:02:06.972Z,2.83
2023-05-12T13:04:56.325Z,2.40
2023-05-12T13:07:45.576Z,2.70
2023-05-12T13:10:35.270Z,2.63
2023-05-12T13:13:25.573Z,2.65
2023-05-12T13:16:14.983Z,2.58
2023-05-12T13:19:04.336Z,2.33
2023-05-12T13:21:53.739Z,2.63
2023-05-12T13:24:43.320Z,2.60
2023-05-12T13:27:32.633Z,2.10
2023-05-12T13:30:23.669Z,3.22
2023-05-12T13:33:13.117Z,2.75
2023-05-12T13:36:02.543Z,2.25
2023-05-12T13:38:51.863Z,2.60
2023-05-12T13:41:42.994Z,2.70
2023-05-12T13:44:32.358Z,2.40
2023-05-12T13:47:22.295Z,2.38
2023-05-12T13:50:11.865Z,2.70
2023-05-12T13:53:01.113Z,2.60
2023-05-12T13:55:50.399Z,2.30
2023-05-12T13:58:39.734Z,2.78
2023-05-12T14:01:29.430Z,2.80
2023-05-12T14:04:18.664Z,2.22
2023-05-12T14:07:08.917Z,2.50
2023-05-12T14:09:58.853Z,2.38
2023-05-12T14:12:48.994Z,2.70
2023-05-12T14:15:48.565Z,2.63
2023-05-12T14:18:39.421Z,2.30
2023-05-12T14:21:29.681Z,2.50
2023-05-12T14:24:19.012Z,2.40
2023-05-12T14:27:08.562Z,2.72
2023-05-12T14:29:58.339Z,2.63
2023-05-12T14:32:47.649Z,2.47
2023-05-12T14:35:37.092Z,2.42
2023-05-12T14:38:26.809Z,2.42
2023-05-12T14:41:16.140Z,2.72
2023-05-12T14:44:05.537Z,2.90
2023-05-12T14:46:54.808Z,2.33
2023-05-12T14:49:45.682Z,2.53
2023-05-12T14:52:39.581Z,2.53
2023-05-12T14:55:30.796Z,3.08
2023-05-12T14:58:22.423Z,2.70
2023-05-12T15:01:11.746Z,2.30
2023-05-12T15:04:01.148Z,2.95
2023-05-12T15:06:50.463Z,2.75
2023-05-12T15:09:39.850Z,2.60
2023-05-12T15:12:29.245Z,2.80
2023-05-12T15:15:18.739Z,2.88
2023-05-12T15:18:08.714Z,2.63
2023-05-12T15:20:58.045Z,3.00
2023-05-12T15:23:47.354Z,2.35
2023-05-12T15:26:39.602Z,2.60
2023-05-12T15:29:29.580Z,2.60
2023-05-12T15:32:19.300Z,2.70
2023-05-12T15:35:09.726Z,2.83
2023-05-12T15:37:59.014Z,2.80
2023-05-12T15:40:48.277Z,2.35
2023-05-12T15:43:40.300Z,2.40
2023-05-12T15:46:29.709Z,2.30
2023-05-12T15:49:19.005Z,2.63
2023-05-12T15:52:10.349Z,2.50
2023-05-12T15:54:59.826Z,2.63
2023-05-12T15:57:49.153Z,3.00
2023-05-12T16:00:38.536Z,2.50
2023-05-12T16:03:28.242Z,2.50
2023-05-12T16:06:17.622Z,3.03
2023-05-12T16:09:06.937Z,2.45
2023-05-12T16:11:56.308Z,2.58
2023-05-12T16:14:45.579Z,2.90
2023-05-12T16:17:34.787Z,2.90
2023-05-12T16:20:24.116Z,2.95
2023-05-12T16:23:13.377Z,3.00
2023-05-12T16:26:02.687Z,2.40
2023-05-12T16:28:52.017Z,2.40
2023-05-12T16:31:41.861Z,2.30
2023-05-12T16:34:31.156Z,2.58
2023-05-12T16:37:20.502Z,2.50
2023-05-12T16:40:10.704Z,2.50
2023-05-12T16:42:59.969Z,2.58
2023-05-12T16:45:49.272Z,2.90
2023-05-12T16:48:38.863Z,2.72
2023-05-12T16:51:31.981Z,2.75
2023-05-12T16:54:21.529Z,2.42
2023-05-12T16:57:10.991Z,2.53
2023-05-12T17:00:00.465Z,2.30
2023-05-12T17:02:49.892Z,2.90
2023-05-12T17:05:39.335Z,2.45
2023-05-12T17:08:28.812Z,2.67
2023-05-12T17:11:18.075Z,3.00
2023-05-12T17:14:07.353Z,2.67
2023-05-12T17:16:56.646Z,2.95
2023-05-12T17:19:46.274Z,2.53
2023-05-12T17:22:38.126Z,2.40
2023-05-12T17:25:29.809Z,2.45
2023-05-12T17:28:19.246Z,2.60
2023-05-12T17:31:09.464Z,2.97
2023-05-12T17:33:58.810Z,3.05
2023-05-12T17:36:48.130Z,2.60
2023-05-12T17:39:41.432Z,2.90
2023-05-12T17:42:32.452Z,3.05
2023-05-12T17:45:22.004Z,2.40
2023-05-12T17:48:12.014Z,2.60
2023-05-12T17:51:02.423Z,2.75
2023-05-12T17:53:51.753Z,2.75
2023-05-12T17:56:41.092Z,2.85
2023-05-12T17:59:30.583Z,2.95
2023-05-12T18:02:19.831Z,2.80
2023-05-12T18:05:10.265Z,2.80
2023-05-12T18:07:59.602Z,2.70
2023-05-12T18:10:49.066Z,2.47
2023-05-12T18:13:38.959Z,2.60
2023-05-12T18:16:29.307Z,2.70
2023-05-12T18:19:19.584Z,2.70
2023-05-12T18:22:08.927Z,2.67
2023-05-12T18:24:58.186Z,2.78
2023-05-12T18:27:47.495Z,2.70
2023-05-12T18:30:36.773Z,2.75
2023-05-12T18:33:26.156Z,3.17
2023-05-12T18:36:16.025Z,2.80
2023-05-12T18:39:06.040Z,2.97
2023-05-12T18:41:55.884Z,2.80
2023-05-12T18:44:45.213Z,2.50
2023-05-12T18:47:34.690Z,2.45
2023-05-12T18:50:24.097Z,2.53
2023-05-12T18:53:13.501Z,2.75
2023-05-12T18:56:02.838Z,2.58
2023-05-12T18:58:52.275Z,2.50
2023-05-12T19:01:41.808Z,2.50
2023-05-12T19:04:31.176Z,2.50
2023-05-12T19:07:20.495Z,2.42
2023-05-12T19:10:11.514Z,2.55
2023-05-12T19:13:00.847Z,2.53
2023-05-12T19:15:50.452Z,2.80
2023-05-12T19:18:39.886Z,2.85
2023-05-12T19:21:29.686Z,2.65
2023-05-12T19:24:19.097Z,2.47
2023-05-12T19:27:08.347Z,2.38
2023-05-12T19:29:58.504Z,2.72
2023-05-12T19:32:48.122Z,2.42
2023-05-12T19:35:37.656Z,2.72
2023-05-12T19:38:27.088Z,2.53
2023-05-12T19:41:16.374Z,2.50
2023-05-12T19:44:05.671Z,2.95
2023-05-12T19:46:55.776Z,2.60
2023-05-12T19:49:45.014Z,2.25
2023-05-12T19:52:35.504Z,2.65
2023-05-12T19:55:25.129Z,2.80
2023-05-12T19:58:14.420Z,2.83
2023-05-12T20:01:03.778Z,2.72
2023-05-12T20:03:54.649Z,2.60
2023-05-12T20:06:44.271Z,2.20
2023-05-12T20:09:33.816Z,2.63
2023-05-12T20:12:23.362Z,2.40
2023-05-12T20:15:13.217Z,2.55
2023-05-12T20:18:02.516Z,2.63
2023-05-12T20:20:52.202Z,2.70
2023-05-12T20:23:41.427Z,2.67
2023-05-12T20:26:31.708Z,3.00
2023-05-12T20:29:26.916Z,2.90
2023-05-12T20:32:16.178Z,2.50
2023-05-12T20:35:06.424Z,2.40
2023-05-12T20:37:56.104Z,2.60
2023-05-12T20:40:45.340Z,2.70
2023-05-12T20:43:34.999Z,2.50
2023-05-12T20:46:24.280Z,2.38
2023-05-12T20:49:13.620Z,2.35
2023-05-12T20:52:02.834Z,2.75
2023-05-12T20:54:58.505Z,2.60
2023-05-12T20:57:47.820Z,2.10
2023-05-12T21:00:37.291Z,2.20
2023-05-12T21:03:27.752Z,2.60
2023-05-12T21:06:17.217Z,2.63
2023-05-12T21:09:06.451Z,2.53
2023-05-12T21:11:55.734Z,2.45
2023-05-12T21:14:46.329Z,2.47
2023-05-12T21:17:35.595Z,2.47
2023-05-12T21:20:24.845Z,2.50
2023-05-12T21:23:14.868Z,2.80
2023-05-12T21:26:04.736Z,2.50
2023-05-12T21:28:54.085Z,2.65
2023-05-12T21:31:46.003Z,2.72
2023-05-12T21:34:36.923Z,2.60
2023-05-12T21:37:26.158Z,2.47
2023-05-12T21:40:15.686Z,2.70
2023-05-12T21:43:04.913Z,2.60
2023-05-12T21:45:54.362Z,2.40
2023-05-12T21:48:43.648Z,2.50
2023-05-12T21:51:36.175Z,2.70
2023-05-12T21:54:25.535Z,2.80
2023-05-12T21:57:14.900Z,2.50
2023-05-12T22:00:05.698Z,2.33
2023-05-12T22:03:04.904Z,2.40
2023-05-12T22:05:54.195Z,2.60
2023-05-12T22:08:43.496Z,2.70
2023-05-12T22:11:32.741Z,2.70
2023-05-12T22:14:24.912Z,2.70
2023-05-12T22:17:14.485Z,2.50
2023-05-12T22:20:03.914Z,2.60
2023-05-12T22:22:53.217Z,2.60
2023-05-12T22:25:42.515Z,2.60
2023-05-12T22:28:31.949Z,2.40
2023-05-12T22:31:21.917Z,2.65
2023-05-12T22:34:11.369Z,2.70
2023-05-12T22:37:00.713Z,2.60
2023-05-12T22:39:50.016Z,2.70
2023-05-12T22:42:39.304Z,2.78
2023-05-12T22:45:28.684Z,2.58
2023-05-12T22:48:17.994Z,2.50
2023-05-12T22:51:07.332Z,2.50
2023-05-12T22:53:56.645Z,2.40
2023-05-12T22:56:45.910Z,2.50
2023-05-12T22:59:35.282Z,2.60
2023-05-12T23:02:24.682Z,2.67
2023-05-12T23:05:14.060Z,2.45
2023-05-12T23:08:04.064Z,2.40
2023-05-12T23:10:53.392Z,2.40
2023-05-12T23:13:42.621Z,2.70
2023-05-12T23:16:32.226Z,2.58
2023-05-12T23:19:21.576Z,2.60
2023-05-12T23:22:10.951Z,2.60
2023-05-12T23:25:00.284Z,2.67
2023-05-12T23:27:49.664Z,2.97
2023-05-12T23:30:38.884Z,2.40
2023-05-12T23:33:28.291Z,2.60
2023-05-12T23:36:17.588Z,2.55
2023-05-12T23:39:07.001Z,2.63
2023-05-12T23:41:56.381Z,2.38
2023-05-12T23:44:46.454Z,2.42
2023-05-12T23:47:36.234Z,2.53
2023-05-12T23:50:25.700Z,2.40
2023-05-12T23:53:14.868Z,3.10
2023-05-12T23:56:06.982Z,2.45
2023-05-12T23:58:56.410Z,2.53
